sensor_id;sensor_type;location;lat;lon;timestamp;temperature;humidity
77839;SHT31;67034;43.226;27.932;2023-09-12T00:00:40;17.07;74.55
77839;SHT31;67034;43.226;27.932;2023-09-12T00:03:06;17.16;74.01
77839;SHT31;67034;43.226;27.932;2023-09-12T00:05:31;16.92;74.47
77839;SHT31;67034;43.226;27.932;2023-09-12T00:07:57;16.76;74.94
77839;SHT31;67034;43.226;27.932;2023-09-12T00:10:23;16.69;75.20
77839;SHT31;67034;43.226;27.932;2023-09-12T00:12:50;16.59;75.55
77839;SHT31;67034;43.226;27.932;2023-09-12T00:15:16;16.76;75.59
77839;SHT31;67034;43.226;27.932;2023-09-12T00:17:41;16.79;75.11
77839;SHT31;67034;43.226;27.932;2023-09-12T00:20:08;16.75;75.23
77839;SHT31;67034;43.226;27.932;2023-09-12T00:22:34;16.69;75.48
77839;SHT31;67034;43.226;27.932;2023-09-12T00:24:59;16.65;75.59
77839;SHT31;67034;43.226;27.932;2023-09-12T00:27:25;16.65;75.59
77839;SHT31;67034;43.226;27.932;2023-09-12T00:29:52;16.79;75.54
77839;SHT31;67034;43.226;27.932;2023-09-12T00:32:18;16.83;75.33
77839;SHT31;67034;43.226;27.932;2023-09-12T00:34:43;17.11;74.76
77839;SHT31;67034;43.226;27.932;2023-09-12T00:37:09;17.16;74.13
77839;SHT31;67034;43.226;27.932;2023-09-12T00:39:35;16.93;74.47
77839;SHT31;67034;43.226;27.932;2023-09-12T00:42:01;16.76;74.96
77839;SHT31;67034;43.226;27.932;2023-09-12T00:44:26;16.63;75.27
77839;SHT31;67034;43.226;27.932;2023-09-12T00:46:54;16.52;75.58
77839;SHT31;67034;43.226;27.932;2023-09-12T00:49:20;16.47;75.91
77839;SHT31;67034;43.226;27.932;2023-09-12T00:51:48;16.44;76.22
77839;SHT31;67034;43.226;27.932;2023-09-12T00:54:15;16.61;75.73
77839;SHT31;67034;43.226;27.932;2023-09-12T00:56:41;16.59;75.73
77839;SHT31;67034;43.226;27.932;2023-09-12T00:59:08;16.51;76.02
77839;SHT31;67034;43.226;27.932;2023-09-12T01:01:34;16.48;76.17
77839;SHT31;67034;43.226;27.932;2023-09-12T01:04:02;16.36;76.43
77839;SHT31;67034;43.226;27.932;2023-09-12T01:06:29;16.32;76.70
77839;SHT31;67034;43.226;27.932;2023-09-12T01:08:55;16.42;76.76
77839;SHT31;67034;43.226;27.932;2023-09-12T01:11:21;16.61;76.56
77839;SHT31;67034;43.226;27.932;2023-09-12T01:13:47;16.82;76.23
77839;SHT31;67034;43.226;27.932;2023-09-12T01:16:12;17.03;75.43
77839;SHT31;67034;43.226;27.932;2023-09-12T01:18:38;17.03;75.16
77839;SHT31;67034;43.226;27.932;2023-09-12T01:24:39;16.86;75.15
77839;SHT31;67034;43.226;27.932;2023-09-12T01:27:20;16.68;75.51
77839;SHT31;67034;43.226;27.932;2023-09-12T01:29:50;16.66;75.91
77839;SHT31;67034;43.226;27.932;2023-09-12T01:32:18;16.90;75.29
77839;SHT31;67034;43.226;27.932;2023-09-12T01:34:45;16.86;74.90
77839;SHT31;67034;43.226;27.932;2023-09-12T01:37:10;16.61;75.42
77839;SHT31;67034;43.226;27.932;2023-09-12T01:39:36;16.49;75.92
77839;SHT31;67034;43.226;27.932;2023-09-12T01:42:02;16.49;76.11
77839;SHT31;67034;43.226;27.932;2023-09-12T01:44:31;16.73;75.55
77839;SHT31;67034;43.226;27.932;2023-09-12T01:47:00;16.69;75.26
77839;SHT31;67034;43.226;27.932;2023-09-12T01:49:28;16.53;75.61
77839;SHT31;67034;43.226;27.932;2023-09-12T01:51:54;16.45;75.87
77839;SHT31;67034;43.226;27.932;2023-09-12T01:54:21;16.41;76.17
77839;SHT31;67034;43.226;27.932;2023-09-12T01:56:47;16.59;75.67
77839;SHT31;67034;43.226;27.932;2023-09-12T01:59:13;16.52;75.35
77839;SHT31;67034;43.226;27.932;2023-09-12T02:01:40;16.36;75.87
77839;SHT31;67034;43.226;27.932;2023-09-12T02:04:07;16.26;76.26
77839;SHT31;67034;43.226;27.932;2023-09-12T02:06:34;16.24;76.33
77839;SHT31;67034;43.226;27.932;2023-09-12T02:09:00;16.11;76.56
77839;SHT31;67034;43.226;27.932;2023-09-12T02:11:26;16.10;77.10
77839;SHT31;67034;43.226;27.932;2023-09-12T02:13:51;16.22;76.73
77839;SHT31;67034;43.226;27.932;2023-09-12T02:16:17;16.14;76.75
77839;SHT31;67034;43.226;27.932;2023-09-12T02:18:44;16.08;77.10
77839;SHT31;67034;43.226;27.932;2023-09-12T02:21:10;16.05;77.38
77839;SHT31;67034;43.226;27.932;2023-09-12T02:23:36;16.08;77.43
77839;SHT31;67034;43.226;27.932;2023-09-12T02:26:01;16.24;76.94
77839;SHT31;67034;43.226;27.932;2023-09-12T02:28:27;16.13;77.04
77839;SHT31;67034;43.226;27.932;2023-09-12T02:30:53;16.05;77.37
77839;SHT31;67034;43.226;27.932;2023-09-12T02:33:18;16.03;77.55
77839;SHT31;67034;43.226;27.932;2023-09-12T02:35:45;16.01;77.74
77839;SHT31;67034;43.226;27.932;2023-09-12T02:38:11;16.00;77.86
77839;SHT31;67034;43.226;27.932;2023-09-12T02:40:37;16.25;77.61
77839;SHT31;67034;43.226;27.932;2023-09-12T02:43:03;16.38;77.06
77839;SHT31;67034;43.226;27.932;2023-09-12T02:45:28;16.47;77.00
77839;SHT31;67034;43.226;27.932;2023-09-12T02:47:54;16.61;76.69
77839;SHT31;67034;43.226;27.932;2023-09-12T02:50:20;16.73;76.34
77839;SHT31;67034;43.226;27.932;2023-09-12T02:52:47;16.77;76.11
77839;SHT31;67034;43.226;27.932;2023-09-12T02:55:13;16.90;76.15
77839;SHT31;67034;43.226;27.932;2023-09-12T02:57:38;17.14;75.18
77839;SHT31;67034;43.226;27.932;2023-09-12T03:00:05;17.07;75.28
77839;SHT31;67034;43.226;27.932;2023-09-12T03:02:33;16.96;75.30
77839;SHT31;67034;43.226;27.932;2023-09-12T03:04:59;16.84;75.46
77839;SHT31;67034;43.226;27.932;2023-09-12T03:07:26;16.68;75.63
77839;SHT31;67034;43.226;27.932;2023-09-12T03:09:53;16.65;76.00
77839;SHT31;67034;43.226;27.932;2023-09-12T03:12:19;16.76;75.53
77839;SHT31;67034;43.226;27.932;2023-09-12T03:14:45;16.58;75.64
77839;SHT31;67034;43.226;27.932;2023-09-12T03:17:10;16.44;76.18
77839;SHT31;67034;43.226;27.932;2023-09-12T03:19:36;16.26;76.47
77839;SHT31;67034;43.226;27.932;2023-09-12T03:22:02;16.25;76.87
77839;SHT31;67034;43.226;27.932;2023-09-12T03:24:28;16.42;76.77
77839;SHT31;67034;43.226;27.932;2023-09-12T03:26:55;16.40;76.51
77839;SHT31;67034;43.226;27.932;2023-09-12T03:29:21;16.29;76.90
77839;SHT31;67034;43.226;27.932;2023-09-12T03:31:47;16.31;77.04
77839;SHT31;67034;43.226;27.932;2023-09-12T03:34:12;16.31;77.09
77839;SHT31;67034;43.226;27.932;2023-09-12T03:36:38;16.36;77.06
77839;SHT31;67034;43.226;27.932;2023-09-12T03:39:04;16.36;77.03
77839;SHT31;67034;43.226;27.932;2023-09-12T03:41:33;16.56;76.87
77839;SHT31;67034;43.226;27.932;2023-09-12T03:44:01;16.47;76.60
77839;SHT31;67034;43.226;27.932;2023-09-12T03:46:27;16.38;76.95
77839;SHT31;67034;43.226;27.932;2023-09-12T03:48:53;16.34;77.26
77839;SHT31;67034;43.226;27.932;2023-09-12T03:51:19;16.35;77.40
77839;SHT31;67034;43.226;27.932;2023-09-12T03:53:44;16.45;77.47
77839;SHT31;67034;43.226;27.932;2023-09-12T03:56:13;16.66;76.84
77839;SHT31;67034;43.226;27.932;2023-09-12T03:58:40;16.65;76.77
77839;SHT31;67034;43.226;27.932;2023-09-12T04:01:07;16.63;76.91
77839;SHT31;67034;43.226;27.932;2023-09-12T04:03:33;16.59;77.06
77839;SHT31;67034;43.226;27.932;2023-09-12T04:05:58;16.62;77.17
77839;SHT31;67034;43.226;27.932;2023-09-12T04:08:24;16.55;77.31
77839;SHT31;67034;43.226;27.932;2023-09-12T04:10:50;16.51;77.35
77839;SHT31;67034;43.226;27.932;2023-09-12T04:13:16;16.65;77.43
77839;SHT31;67034;43.226;27.932;2023-09-12T04:15:41;16.86;76.78
77839;SHT31;67034;43.226;27.932;2023-09-12T04:18:08;16.90;76.55
77839;SHT31;67034;43.226;27.932;2023-09-12T04:20:34;16.90;76.57
77839;SHT31;67034;43.226;27.932;2023-09-12T04:23:00;16.89;76.60
77839;SHT31;67034;43.226;27.932;2023-09-12T04:25:26;16.99;76.36
77839;SHT31;67034;43.226;27.932;2023-09-12T04:27:52;17.21;76.20
77839;SHT31;67034;43.226;27.932;2023-09-12T04:30:18;17.41;75.27
77839;SHT31;67034;43.226;27.932;2023-09-12T04:32:44;17.42;74.91
77839;SHT31;67034;43.226;27.932;2023-09-12T04:35:11;17.20;75.30
77839;SHT31;67034;43.226;27.932;2023-09-12T04:37:36;17.11;75.85
77839;SHT31;67034;43.226;27.932;2023-09-12T04:40:03;17.27;76.03
77839;SHT31;67034;43.226;27.932;2023-09-12T04:42:31;17.50;75.31
77839;SHT31;67034;43.226;27.932;2023-09-12T04:44:57;17.50;75.36
77839;SHT31;67034;43.226;27.932;2023-09-12T04:47:22;17.55;75.37
77839;SHT31;67034;43.226;27.932;2023-09-12T04:49:49;17.60;75.45
77839;SHT31;67034;43.226;27.932;2023-09-12T04:52:19;17.77;75.41
77839;SHT31;67034;43.226;27.932;2023-09-12T04:54:44;18.09;75.00
77839;SHT31;67034;43.226;27.932;2023-09-12T04:57:10;18.23;74.34
77839;SHT31;67034;43.226;27.932;2023-09-12T04:59:37;18.29;74.09
77839;SHT31;67034;43.226;27.932;2023-09-12T05:02:03;18.51;73.54
77839;SHT31;67034;43.226;27.932;2023-09-12T05:04:29;18.67;73.13
77839;SHT31;67034;43.226;27.932;2023-09-12T05:06:55;18.68;72.89
77839;SHT31;67034;43.226;27.932;2023-09-12T05:09:22;18.72;72.94
77839;SHT31;67034;43.226;27.932;2023-09-12T05:11:47;19.01;72.61
77839;SHT31;67034;43.226;27.932;2023-09-12T05:14:15;19.35;71.81
77839;SHT31;67034;43.226;27.932;2023-09-12T05:16:40;19.71;70.82
77839;SHT31;67034;43.226;27.932;2023-09-12T05:19:06;19.77;69.78
77839;SHT31;67034;43.226;27.932;2023-09-12T05:21:32;19.93;69.74
77839;SHT31;67034;43.226;27.932;2023-09-12T05:23:58;20.10;69.25
77839;SHT31;67034;43.226;27.932;2023-09-12T05:26:25;20.25;68.98
77839;SHT31;67034;43.226;27.932;2023-09-12T05:28:51;20.48;68.46
77839;SHT31;67034;43.226;27.932;2023-09-12T05:31:16;20.66;68.10
77839;SHT31;67034;43.226;27.932;2023-09-12T05:33:42;20.87;67.48
77839;SHT31;67034;43.226;27.932;2023-09-12T05:36:08;20.87;67.04
77839;SHT31;67034;43.226;27.932;2023-09-12T05:38:33;20.87;66.74
77839;SHT31;67034;43.226;27.932;2023-09-12T05:40:59;21.14;66.14
77839;SHT31;67034;43.226;27.932;2023-09-12T05:43:26;21.01;65.82
77839;SHT31;67034;43.226;27.932;2023-09-12T05:45:52;21.08;65.91
77839;SHT31;67034;43.226;27.932;2023-09-12T05:48:18;21.27;65.41
77839;SHT31;67034;43.226;27.932;2023-09-12T05:50:44;21.58;64.73
77839;SHT31;67034;43.226;27.932;2023-09-12T05:53:10;21.81;63.89
77839;SHT31;67034;43.226;27.932;2023-09-12T05:55:36;21.99;63.01
77839;SHT31;67034;43.226;27.932;2023-09-12T05:58:02;21.92;62.60
77839;SHT31;67034;43.226;27.932;2023-09-12T06:00:32;22.09;62.36
77839;SHT31;67034;43.226;27.932;2023-09-12T06:02:58;22.24;62.00
77839;SHT31;67034;43.226;27.932;2023-09-12T06:05:24;22.41;61.27
77839;SHT31;67034;43.226;27.932;2023-09-12T06:07:49;22.54;60.74
77839;SHT31;67034;43.226;27.932;2023-09-12T06:10:15;22.63;60.62
77839;SHT31;67034;43.226;27.932;2023-09-12T06:12:41;22.69;60.54
77839;SHT31;67034;43.226;27.932;2023-09-12T06:15:08;22.83;60.18
77839;SHT31;67034;43.226;27.932;2023-09-12T06:17:35;22.84;60.08
77839;SHT31;67034;43.226;27.932;2023-09-12T06:20:01;22.94;60.07
77839;SHT31;67034;43.226;27.932;2023-09-12T06:22:26;23.01;60.09
77839;SHT31;67034;43.226;27.932;2023-09-12T06:24:54;23.09;59.81
77839;SHT31;67034;43.226;27.932;2023-09-12T06:27:19;23.23;59.16
77839;SHT31;67034;43.226;27.932;2023-09-12T06:29:45;23.23;58.09
77839;SHT31;67034;43.226;27.932;2023-09-12T06:32:15;23.29;57.95
77839;SHT31;67034;43.226;27.932;2023-09-12T06:34:42;23.35;57.90
77839;SHT31;67034;43.226;27.932;2023-09-12T06:37:08;23.38;57.87
77839;SHT31;67034;43.226;27.932;2023-09-12T06:39:34;23.53;57.51
77839;SHT31;67034;43.226;27.932;2023-09-12T06:41:59;23.63;57.14
77839;SHT31;67034;43.226;27.932;2023-09-12T06:44:25;23.49;56.56
77839;SHT31;67034;43.226;27.932;2023-09-12T06:46:51;23.47;56.43
77839;SHT31;67034;43.226;27.932;2023-09-12T06:49:16;23.63;56.09
77839;SHT31;67034;43.226;27.932;2023-09-12T06:51:44;23.80;56.26
77839;SHT31;67034;43.226;27.932;2023-09-12T06:54:09;23.98;55.65
77839;SHT31;67034;43.226;27.932;2023-09-12T06:56:35;24.04;55.19
77839;SHT31;67034;43.226;27.932;2023-09-12T06:59:03;24.07;54.61
77839;SHT31;67034;43.226;27.932;2023-09-12T07:01:29;24.17;54.22
77839;SHT31;67034;43.226;27.932;2023-09-12T07:03:55;24.32;53.92
77839;SHT31;67034;43.226;27.932;2023-09-12T07:06:21;24.38;53.57
77839;SHT31;67034;43.226;27.932;2023-09-12T07:08:49;24.01;52.79
77839;SHT31;67034;43.226;27.932;2023-09-12T07:11:14;23.83;53.29
77839;SHT31;67034;43.226;27.932;2023-09-12T07:13:40;23.83;53.79
77839;SHT31;67034;43.226;27.932;2023-09-12T07:16:06;24.04;53.79
77839;SHT31;67034;43.226;27.932;2023-09-12T07:18:31;24.25;53.66
77839;SHT31;67034;43.226;27.932;2023-09-12T07:21:01;24.17;52.87
77839;SHT31;67034;43.226;27.932;2023-09-12T07:23:28;24.00;53.53
77839;SHT31;67034;43.226;27.932;2023-09-12T07:25:56;23.81;54.17
77839;SHT31;67034;43.226;27.932;2023-09-12T07:28:23;23.77;54.58
77839;SHT31;67034;43.226;27.932;2023-09-12T07:30:48;23.98;54.42
77839;SHT31;67034;43.226;27.932;2023-09-12T07:33:14;24.24;53.93
77839;SHT31;67034;43.226;27.932;2023-09-12T07:35:41;24.42;53.30
77839;SHT31;67034;43.226;27.932;2023-09-12T07:38:07;24.51;52.81
77839;SHT31;67034;43.226;27.932;2023-09-12T07:40:32;24.39;52.76
77839;SHT31;67034;43.226;27.932;2023-09-12T07:42:59;24.43;52.88
77839;SHT31;67034;43.226;27.932;2023-09-12T07:45:25;24.33;52.87
77839;SHT31;67034;43.226;27.932;2023-09-12T07:47:51;24.28;52.62
77839;SHT31;67034;43.226;27.932;2023-09-12T07:50:17;24.12;53.13
77839;SHT31;67034;43.226;27.932;2023-09-12T07:52:42;24.12;53.20
77839;SHT31;67034;43.226;27.932;2023-09-12T07:55:09;24.25;52.97
77839;SHT31;67034;43.226;27.932;2023-09-12T07:57:34;24.38;53.29
77839;SHT31;67034;43.226;27.932;2023-09-12T08:00:04;24.68;52.98
77839;SHT31;67034;43.226;27.932;2023-09-12T08:02:36;24.86;52.54
77839;SHT31;67034;43.226;27.932;2023-09-12T08:05:01;24.91;53.25
77839;SHT31;67034;43.226;27.932;2023-09-12T08:07:27;25.09;52.94
77839;SHT31;67034;43.226;27.932;2023-09-12T08:09:54;24.72;52.52
77839;SHT31;67034;43.226;27.932;2023-09-12T08:12:22;24.60;53.11
77839;SHT31;67034;43.226;27.932;2023-09-12T08:14:48;24.82;53.25
77839;SHT31;67034;43.226;27.932;2023-09-12T08:17:15;24.89;53.52
77839;SHT31;67034;43.226;27.932;2023-09-12T08:19:41;25.20;53.67
77839;SHT31;67034;43.226;27.932;2023-09-12T08:22:08;25.62;52.81
77839;SHT31;67034;43.226;27.932;2023-09-12T08:24:34;25.57;52.56
77839;SHT31;67034;43.226;27.932;2023-09-12T08:26:59;25.54;52.69
77839;SHT31;67034;43.226;27.932;2023-09-12T08:29:25;25.30;53.50
77839;SHT31;67034;43.226;27.932;2023-09-12T08:31:51;25.00;54.12
77839;SHT31;67034;43.226;27.932;2023-09-12T08:34:20;24.59;54.76
77839;SHT31;67034;43.226;27.932;2023-09-12T08:36:46;24.62;55.01
77839;SHT31;67034;43.226;27.932;2023-09-12T08:39:14;24.39;55.03
77839;SHT31;67034;43.226;27.932;2023-09-12T08:41:40;24.49;55.68
77839;SHT31;67034;43.226;27.932;2023-09-12T08:44:06;24.72;55.08
77839;SHT31;67034;43.226;27.932;2023-09-12T08:46:32;24.84;54.67
77839;SHT31;67034;43.226;27.932;2023-09-12T08:48:58;24.82;55.18
77839;SHT31;67034;43.226;27.932;2023-09-12T08:51:26;24.80;55.10
77839;SHT31;67034;43.226;27.932;2023-09-12T08:53:52;25.11;54.57
77839;SHT31;67034;43.226;27.932;2023-09-12T08:56:18;25.52;54.56
77839;SHT31;67034;43.226;27.932;2023-09-12T08:58:45;26.20;53.63
77839;SHT31;67034;43.226;27.932;2023-09-12T09:01:13;26.71;51.29
77839;SHT31;67034;43.226;27.932;2023-09-12T09:03:40;26.32;50.02
77839;SHT31;67034;43.226;27.932;2023-09-12T09:06:08;26.39;50.61
77839;SHT31;67034;43.226;27.932;2023-09-12T09:08:36;26.19;51.19
77839;SHT31;67034;43.226;27.932;2023-09-12T09:11:02;26.16;51.57
77839;SHT31;67034;43.226;27.932;2023-09-12T09:13:29;26.34;51.56
77839;SHT31;67034;43.226;27.932;2023-09-12T09:16:11;26.37;50.87
77839;SHT31;67034;43.226;27.932;2023-09-12T09:18:51;26.81;51.23
77839;SHT31;67034;43.226;27.932;2023-09-12T09:21:18;27.29;50.45
77839;SHT31;67034;43.226;27.932;2023-09-12T09:23:46;27.45;47.32
77839;SHT31;67034;43.226;27.932;2023-09-12T09:26:12;27.02;48.13
77839;SHT31;67034;43.226;27.932;2023-09-12T09:28:38;27.15;48.44
77839;SHT31;67034;43.226;27.932;2023-09-12T09:31:10;27.61;48.37
77839;SHT31;67034;43.226;27.932;2023-09-12T09:33:37;28.01;47.28
77839;SHT31;67034;43.226;27.932;2023-09-12T09:36:05;27.50;46.18
77839;SHT31;67034;43.226;27.932;2023-09-12T09:38:31;26.80;47.72
77839;SHT31;67034;43.226;27.932;2023-09-12T09:40:58;26.80;48.64
77839;SHT31;67034;43.226;27.932;2023-09-12T09:43:24;27.36;48.09
77839;SHT31;67034;43.226;27.932;2023-09-12T09:45:50;27.12;46.93
77839;SHT31;67034;43.226;27.932;2023-09-12T09:48:19;26.57;47.75
77839;SHT31;67034;43.226;27.932;2023-09-12T09:50:45;26.13;48.62
77839;SHT31;67034;43.226;27.932;2023-09-12T09:53:11;26.22;48.72
77839;SHT31;67034;43.226;27.932;2023-09-12T09:55:36;26.20;48.00
77839;SHT31;67034;43.226;27.932;2023-09-12T09:58:05;26.32;47.79
77839;SHT31;67034;43.226;27.932;2023-09-12T10:00:33;26.78;47.24
77839;SHT31;67034;43.226;27.932;2023-09-12T10:02:59;27.29;46.23
77839;SHT31;67034;43.226;27.932;2023-09-12T10:05:28;27.69;45.53
77839;SHT31;67034;43.226;27.932;2023-09-12T10:07:55;27.70;44.00
77839;SHT31;67034;43.226;27.932;2023-09-12T10:10:24;26.88;45.50
77839;SHT31;67034;43.226;27.932;2023-09-12T10:12:56;26.77;45.84
77839;SHT31;67034;43.226;27.932;2023-09-12T10:15:26;26.55;46.10
77839;SHT31;67034;43.226;27.932;2023-09-12T10:17:57;26.40;46.11
77839;SHT31;67034;43.226;27.932;2023-09-12T10:20:28;26.32;46.66
77839;SHT31;67034;43.226;27.932;2023-09-12T10:23:04;26.44;46.71
77839;SHT31;67034;43.226;27.932;2023-09-12T10:25:35;26.65;45.27
77839;SHT31;67034;43.226;27.932;2023-09-12T10:28:03;26.58;45.67
77839;SHT31;67034;43.226;27.932;2023-09-12T10:30:31;26.58;45.61
77839;SHT31;67034;43.226;27.932;2023-09-12T10:32:58;26.81;45.57
77839;SHT31;67034;43.226;27.932;2023-09-12T10:35:24;27.23;44.55
77839;SHT31;67034;43.226;27.932;2023-09-12T10:37:51;27.08;44.18
77839;SHT31;67034;43.226;27.932;2023-09-12T10:40:17;27.31;44.98
77839;SHT31;67034;43.226;27.932;2023-09-12T10:42:45;27.74;44.38
77839;SHT31;67034;43.226;27.932;2023-09-12T10:45:12;27.94;43.07
77839;SHT31;67034;43.226;27.932;2023-09-12T10:47:40;28.41;43.37
77839;SHT31;67034;43.226;27.932;2023-09-12T10:50:07;28.70;41.60
77839;SHT31;67034;43.226;27.932;2023-09-12T10:52:33;28.25;41.63
77839;SHT31;67034;43.226;27.932;2023-09-12T10:55:04;28.39;42.34
77839;SHT31;67034;43.226;27.932;2023-09-12T10:57:31;28.14;41.62
77839;SHT31;67034;43.226;27.932;2023-09-12T11:00:13;27.40;42.95
77839;SHT31;67034;43.226;27.932;2023-09-12T11:02:40;26.92;43.94
77839;SHT31;67034;43.226;27.932;2023-09-12T11:05:38;27.29;43.71
77839;SHT31;67034;43.226;27.932;2023-09-12T11:08:16;27.74;44.35
77839;SHT31;67034;43.226;27.932;2023-09-12T11:10:42;28.32;42.57
77839;SHT31;67034;43.226;27.932;2023-09-12T11:13:16;28.31;41.62
77839;SHT31;67034;43.226;27.932;2023-09-12T11:16:11;28.00;41.60
77839;SHT31;67034;43.226;27.932;2023-09-12T11:19:13;27.38;42.57
77839;SHT31;67034;43.226;27.932;2023-09-12T11:21:44;27.08;43.49
77839;SHT31;67034;43.226;27.932;2023-09-12T11:24:10;27.16;43.07
77839;SHT31;67034;43.226;27.932;2023-09-12T11:26:52;27.21;43.98
77839;SHT31;67034;43.226;27.932;2023-09-12T11:29:19;27.54;42.72
77839;SHT31;67034;43.226;27.932;2023-09-12T11:31:54;27.71;42.27
77839;SHT31;67034;43.226;27.932;2023-09-12T11:34:24;27.91;42.10
77839;SHT31;67034;43.226;27.932;2023-09-12T11:36:50;28.14;42.66
77839;SHT31;67034;43.226;27.932;2023-09-12T11:39:23;28.32;41.05
77839;SHT31;67034;43.226;27.932;2023-09-12T11:41:50;28.10;41.36
77839;SHT31;67034;43.226;27.932;2023-09-12T11:44:16;27.53;42.31
77839;SHT31;67034;43.226;27.932;2023-09-12T11:46:42;26.94;43.54
77839;SHT31;67034;43.226;27.932;2023-09-12T11:49:10;27.13;45.06
77839;SHT31;67034;43.226;27.932;2023-09-12T11:51:35;27.57;43.79
77839;SHT31;67034;43.226;27.932;2023-09-12T11:54:01;28.08;43.00
77839;SHT31;67034;43.226;27.932;2023-09-12T11:56:29;27.73;41.84
77839;SHT31;67034;43.226;27.932;2023-09-12T11:58:56;27.15;42.75
77839;SHT31;67034;43.226;27.932;2023-09-12T12:01:22;27.02;43.42
77839;SHT31;67034;43.226;27.932;2023-09-12T12:03:47;27.01;43.52
77839;SHT31;67034;43.226;27.932;2023-09-12T12:06:19;27.01;43.53
77839;SHT31;67034;43.226;27.932;2023-09-12T12:08:47;26.88;43.71
77839;SHT31;67034;43.226;27.932;2023-09-12T12:11:12;27.09;43.62
77839;SHT31;67034;43.226;27.932;2023-09-12T12:13:38;27.32;43.44
77839;SHT31;67034;43.226;27.932;2023-09-12T12:16:14;27.63;42.33
77839;SHT31;67034;43.226;27.932;2023-09-12T12:18:40;27.31;43.12
77839;SHT31;67034;43.226;27.932;2023-09-12T12:21:06;27.25;43.82
77839;SHT31;67034;43.226;27.932;2023-09-12T12:23:33;27.73;44.00
77839;SHT31;67034;43.226;27.932;2023-09-12T12:26:03;27.83;42.79
77839;SHT31;67034;43.226;27.932;2023-09-12T12:28:30;27.40;43.51
77839;SHT31;67034;43.226;27.932;2023-09-12T12:30:56;26.81;44.57
77839;SHT31;67034;43.226;27.932;2023-09-12T12:33:22;26.37;45.28
77839;SHT31;67034;43.226;27.932;2023-09-12T12:35:47;26.36;45.52
77839;SHT31;67034;43.226;27.932;2023-09-12T12:38:16;26.47;45.78
77839;SHT31;67034;43.226;27.932;2023-09-12T12:40:45;26.32;45.96
77839;SHT31;67034;43.226;27.932;2023-09-12T12:43:16;26.65;45.68
77839;SHT31;67034;43.226;27.932;2023-09-12T12:45:52;27.02;44.67
77839;SHT31;67034;43.226;27.932;2023-09-12T12:48:29;27.38;45.23
77839;SHT31;67034;43.226;27.932;2023-09-12T12:50:55;27.81;44.60
77839;SHT31;67034;43.226;27.932;2023-09-12T12:53:38;28.28;42.33
77839;SHT31;67034;43.226;27.932;2023-09-12T12:56:06;28.08;42.26
77839;SHT31;67034;43.226;27.932;2023-09-12T12:58:31;27.94;42.23
77839;SHT31;67034;43.226;27.932;2023-09-12T13:00:57;27.46;42.26
77839;SHT31;67034;43.226;27.932;2023-09-12T13:03:23;27.21;43.23
77839;SHT31;67034;43.226;27.932;2023-09-12T13:05:49;26.82;43.72
77839;SHT31;67034;43.226;27.932;2023-09-12T13:08:15;26.73;44.11
77839;SHT31;67034;43.226;27.932;2023-09-12T13:10:41;26.70;44.60
77839;SHT31;67034;43.226;27.932;2023-09-12T13:13:11;26.74;44.59
77839;SHT31;67034;43.226;27.932;2023-09-12T13:15:37;27.02;44.29
77839;SHT31;67034;43.226;27.932;2023-09-12T13:18:03;26.98;44.18
77839;SHT31;67034;43.226;27.932;2023-09-12T13:20:29;27.01;43.94
77839;SHT31;67034;43.226;27.932;2023-09-12T13:22:55;27.06;43.86
77839;SHT31;67034;43.226;27.932;2023-09-12T13:25:21;27.26;42.94
77839;SHT31;67034;43.226;27.932;2023-09-12T13:27:49;27.54;42.86
77839;SHT31;67034;43.226;27.932;2023-09-12T13:30:17;27.71;42.73
77839;SHT31;67034;43.226;27.932;2023-09-12T13:32:43;27.36;43.39
77839;SHT31;67034;43.226;27.932;2023-09-12T13:35:09;27.57;44.55
77839;SHT31;67034;43.226;27.932;2023-09-12T13:37:34;27.84;42.77
77839;SHT31;67034;43.226;27.932;2023-09-12T13:40:00;27.86;42.41
77839;SHT31;67034;43.226;27.932;2023-09-12T13:42:26;27.89;42.29
77839;SHT31;67034;43.226;27.932;2023-09-12T13:44:56;27.96;42.57
77839;SHT31;67034;43.226;27.932;2023-09-12T13:47:23;27.91;42.03
77839;SHT31;67034;43.226;27.932;2023-09-12T13:49:51;27.56;42.43
77839;SHT31;67034;43.226;27.932;2023-09-12T13:52:19;27.57;42.82
77839;SHT31;67034;43.226;27.932;2023-09-12T13:54:45;27.64;43.00
77839;SHT31;67034;43.226;27.932;2023-09-12T13:57:11;27.96;44.30
77839;SHT31;67034;43.226;27.932;2023-09-12T13:59:37;28.18;42.82
77839;SHT31;67034;43.226;27.932;2023-09-12T14:02:03;28.32;42.46
77839;SHT31;67034;43.226;27.932;2023-09-12T14:04:30;27.81;43.25
77839;SHT31;67034;43.226;27.932;2023-09-12T14:06:56;27.57;44.00
77839;SHT31;67034;43.226;27.932;2023-09-12T14:09:22;27.66;44.23
77839;SHT31;67034;43.226;27.932;2023-09-12T14:11:47;27.57;44.20
77839;SHT31;67034;43.226;27.932;2023-09-12T14:14:13;27.52;44.31
77839;SHT31;67034;43.226;27.932;2023-09-12T14:16:39;27.12;43.96
77839;SHT31;67034;43.226;27.932;2023-09-12T14:19:05;26.57;44.67
77839;SHT31;67034;43.226;27.932;2023-09-12T14:21:32;26.40;44.91
77839;SHT31;67034;43.226;27.932;2023-09-12T14:23:58;26.30;45.13
77839;SHT31;67034;43.226;27.932;2023-09-12T14:26:24;26.36;45.18
77839;SHT31;67034;43.226;27.932;2023-09-12T14:28:50;26.50;45.42
77839;SHT31;67034;43.226;27.932;2023-09-12T14:31:17;26.61;45.86
77839;SHT31;67034;43.226;27.932;2023-09-12T14:33:43;26.74;45.94
77839;SHT31;67034;43.226;27.932;2023-09-12T14:36:09;26.96;46.36
77839;SHT31;67034;43.226;27.932;2023-09-12T14:38:36;27.11;45.35
77839;SHT31;67034;43.226;27.932;2023-09-12T14:41:02;26.77;45.52
77839;SHT31;67034;43.226;27.932;2023-09-12T14:43:28;26.61;46.15
77839;SHT31;67034;43.226;27.932;2023-09-12T14:45:54;26.57;46.05
77839;SHT31;67034;43.226;27.932;2023-09-12T14:48:20;26.27;46.95
77839;SHT31;67034;43.226;27.932;2023-09-12T14:50:46;26.02;47.45
77839;SHT31;67034;43.226;27.932;2023-09-12T14:53:16;25.86;47.94
77839;SHT31;67034;43.226;27.932;2023-09-12T14:55:43;25.67;48.08
77839;SHT31;67034;43.226;27.932;2023-09-12T14:58:09;25.27;48.83
77839;SHT31;67034;43.226;27.932;2023-09-12T15:00:35;25.26;49.01
77839;SHT31;67034;43.226;27.932;2023-09-12T15:03:01;25.31;49.22
77839;SHT31;67034;43.226;27.932;2023-09-12T15:05:28;25.34;49.13
77839;SHT31;67034;43.226;27.932;2023-09-12T15:07:54;24.93;49.53
77839;SHT31;67034;43.226;27.932;2023-09-12T15:10:20;24.72;50.82
77839;SHT31;67034;43.226;27.932;2023-09-12T15:12:47;24.63;51.47
77839;SHT31;67034;43.226;27.932;2023-09-12T15:15:13;24.75;51.80
77839;SHT31;67034;43.226;27.932;2023-09-12T15:17:39;25.02;51.71